Time;durP1;ratioP1;P1;durP2;ratioP2;P2;SDS_P1;SDS_P2;PMS_P1;PMS_P2;Temp;Humidity;BMP_temperature;BMP_pressure;BME280_temperature;BME280_humidity;BME280_pressure;Samples;Min_cycle;Max_cycle;Signal;HPM_P1;HPM_P2
2023/12/29 00:01:13;;;;;;;42.05;39.90;;;;;;;;;;5030355;28;21364;-51
2023/12/29 00:03:38;;;;;;;42.80;40.58;;;;;;;;;;5026179;28;20032;-51
2023/12/29 00:06:04;;;;;;;41.92;39.78;;;;;;;;;;5025649;28;20396;-50
2023/12/29 00:08:29;;;;;;;40.10;38.05;;;;;;;;;;5021198;28;20030;-52
2023/12/29 00:10:55;;;;;;;40.53;38.45;;;;;;;;;;5023303;28;20510;-60
2023/12/29 00:13:22;;;;;;;40.75;38.65;;;;;;;;;;5028017;28;20041;-60
2023/12/29 00:15:51;;;;;;;40.38;38.33;;;;;;;;;;5029184;28;20029;-51
2023/12/29 00:18:16;;;;;;;38.40;36.42;;;;;;;;;;5027278;28;20052;-50
2023/12/29 00:20:42;;;;;;;38.53;36.55;;;;;;;;;;5026601;28;20040;-54
2023/12/29 00:23:07;;;;;;;38.60;36.63;;;;;;;;;;5029971;28;20025;-52
2023/12/29 00:25:38;;;;;;;38.53;36.58;;;;;;;;;;5033604;28;20108;-52
2023/12/29 00:28:05;;;;;;;38.33;36.33;;;;;;;;;;5031725;28;20029;-54
2023/12/29 00:30:30;;;;;;;37.75;35.80;;;;;;;;;;5033316;28;20535;-51
2023/12/29 00:32:56;;;;;;;38.05;36.10;;;;;;;;;;5031079;28;20463;-51
2023/12/29 00:35:21;;;;;;;36.95;35.05;;;;;;;;;;5033263;28;20043;-50
2023/12/29 00:37:47;;;;;;;38.50;36.40;;;;;;;;;;5029438;28;20087;-51
2023/12/29 00:40:12;;;;;;;36.33;34.47;;;;;;;;;;5029703;28;20056;-49
2023/12/29 00:42:38;;;;;;;34.40;32.63;;;;;;;;;;5029053;28;20474;-60
2023/12/29 00:45:04;;;;;;;33.60;31.85;;;;;;;;;;5036111;28;20110;-60
2023/12/29 00:47:30;;;;;;;34.08;32.28;;;;;;;;;;5035349;28;20033;-52
2023/12/29 00:49:55;;;;;;;35.22;33.40;;;;;;;;;;5029721;28;20037;-52
2023/12/29 00:52:21;;;;;;;35.75;33.90;;;;;;;;;;5032478;28;20056;-50
2023/12/29 00:54:46;;;;;;;32.72;30.98;;;;;;;;;;5031721;28;20026;-60
2023/12/29 00:57:12;;;;;;;33.03;31.30;;;;;;;;;;5033726;28;20033;-60
2023/12/29 00:59:40;;;;;;;32.33;30.65;;;;;;;;;;5031984;28;20026;-60
2023/12/29 01:02:06;;;;;;;34.20;32.40;;;;;;;;;;5025368;28;20026;-60
2023/12/29 01:04:31;;;;;;;33.05;31.33;;;;;;;;;;5032331;28;20519;-60
2023/12/29 01:06:56;;;;;;;33.47;31.73;;;;;;;;;;5030697;28;20036;-60
2023/12/29 01:09:22;;;;;;;32.95;31.25;;;;;;;;;;5032734;28;20469;-60
2023/12/29 01:11:47;;;;;;;33.58;31.48;;;;;;;;;;5032262;28;20511;-60
2023/12/29 01:14:13;;;;;;;32.78;31.08;;;;;;;;;;5028890;28;20536;-60
2023/12/29 01:16:39;;;;;;;32.28;30.60;;;;;;;;;;5028388;28;20033;-60
2023/12/29 01:19:05;;;;;;;34.03;31.83;;;;;;;;;;5028655;28;20416;-60
2023/12/29 01:21:33;;;;;;;33.53;31.80;;;;;;;;;;5032748;28;20128;-60
2023/12/29 01:24:00;;;;;;;34.53;32.67;;;;;;;;;;5028432;28;20449;-60
2023/12/29 01:26:26;;;;;;;32.65;30.95;;;;;;;;;;5033353;28;21009;-52
2023/12/29 01:28:51;;;;;;;33.20;31.50;;;;;;;;;;5031768;28;20040;-49
2023/12/29 01:31:17;;;;;;;32.55;30.85;;;;;;;;;;5028418;28;20371;-50
2023/12/29 01:33:42;;;;;;;33.25;31.52;;;;;;;;;;5030701;28;20483;-51
2023/12/29 01:36:07;;;;;;;32.60;30.90;;;;;;;;;;5033723;28;20447;-59
2023/12/29 01:38:33;;;;;;;32.45;30.75;;;;;;;;;;5025411;28;20117;-60
2023/12/29 01:40:58;;;;;;;31.42;29.77;;;;;;;;;;5029273;28;20059;-60
2023/12/29 01:43:25;;;;;;;35.03;32.83;;;;;;;;;;5026330;28;20385;-60
2023/12/29 01:45:50;;;;;;;31.90;30.25;;;;;;;;;;5027941;28;20029;-60
2023/12/29 01:48:15;;;;;;;30.30;28.73;;;;;;;;;;5030089;28;20049;-51
2023/12/29 01:50:41;;;;;;;28.65;27.13;;;;;;;;;;5028007;28;20041;-60
2023/12/29 01:53:07;;;;;;;29.80;28.25;;;;;;;;;;5029948;28;20025;-59
2023/12/29 01:55:33;;;;;;;31.30;29.30;;;;;;;;;;5028361;28;20454;-53
2023/12/29 01:57:59;;;;;;;31.17;29.58;;;;;;;;;;5030850;28;20135;-52
2023/12/29 02:00:25;;;;;;;30.08;28.48;;;;;;;;;;5029298;28;20037;-60
2023/12/29 02:02:51;;;;;;;28.73;27.13;;;;;;;;;;5028077;28;20491;-60
2023/12/29 02:05:17;;;;;;;27.45;26.02;;;;;;;;;;5033398;28;20087;-60
2023/12/29 02:07:43;;;;;;;28.52;26.92;;;;;;;;;;5027986;28;20041;-60
2023/12/29 02:10:15;;;;;;;26.27;24.88;;;;;;;;;;5033534;28;20037;-49
2023/12/29 02:12:41;;;;;;;28.50;27.00;;;;;;;;;;5032364;28;20110;-51
2023/12/29 02:15:07;;;;;;;27.60;26.15;;;;;;;;;;5032356;28;20044;-51
2023/12/29 02:17:47;;;;;;;27.00;25.58;;;;;;;;;;5028065;28;20045;-53
2023/12/29 02:20:13;;;;;;;26.77;25.38;;;;;;;;;;5027109;28;20038;-54
2023/12/29 02:22:38;;;;;;;27.60;26.13;;;;;;;;;;5028988;28;20468;-50
2023/12/29 02:25:05;;;;;;;27.02;25.45;;;;;;;;;;5025004;28;20040;-60
2023/12/29 02:27:58;;;;;;;27.15;25.73;;;;;;;;;;5027258;28;20402;-60
2023/12/29 02:30:41;;;;;;;26.55;25.05;;;;;;;;;;5027645;28;20062;-60
2023/12/29 02:33:10;;;;;;;28.08;26.27;;;;;;;;;;5028625;28;20071;-60
2023/12/29 02:35:41;;;;;;;25.27;23.95;;;;;;;;;;5027807;28;20042;-60
2023/12/29 02:38:06;;;;;;;25.83;24.48;;;;;;;;;;5030131;28;20029;-49
2023/12/29 02:40:32;;;;;;;27.40;25.92;;;;;;;;;;5026983;28;20087;-60
2023/12/29 02:42:57;;;;;;;28.02;25.80;;;;;;;;;;5028387;28;20064;-49
2023/12/29 02:45:23;;;;;;;26.65;25.25;;;;;;;;;;5026822;28;20048;-52
2023/12/29 02:47:49;;;;;;;26.70;25.30;;;;;;;;;;5028210;28;20033;-59
2023/12/29 02:50:15;;;;;;;27.05;25.65;;;;;;;;;;5026613;28;20030;-52
2023/12/29 02:52:40;;;;;;;26.85;25.38;;;;;;;;;;5027988;28;20037;-51
2023/12/29 02:55:05;;;;;;;27.42;25.98;;;;;;;;;;5032229;28;20111;-53
2023/12/29 02:57:31;;;;;;;25.83;24.48;;;;;;;;;;5026046;28;20075;-53
2023/12/29 02:59:56;;;;;;;27.05;25.65;;;;;;;;;;5028705;28;20083;-51
2023/12/29 03:02:22;;;;;;;27.10;25.67;;;;;;;;;;5028938;28;20466;-52
2023/12/29 03:04:47;;;;;;;26.63;25.23;;;;;;;;;;5027917;28;20025;-54
2023/12/29 03:07:13;;;;;;;27.98;26.48;;;;;;;;;;5029574;28;20056;-53
2023/12/29 03:09:38;;;;;;;27.83;26.33;;;;;;;;;;5031455;28;20102;-59
2023/12/29 03:12:04;;;;;;;26.15;24.75;;;;;;;;;;5031635;28;20029;-60
2023/12/29 03:14:29;;;;;;;28.15;26.67;;;;;;;;;;5029743;28;20175;-54
2023/12/29 03:16:54;;;;;;;26.13;24.73;;;;;;;;;;5030016;28;20029;-51
2023/12/29 03:19:20;;;;;;;28.67;27.13;;;;;;;;;;5035409;28;20051;-53
2023/12/29 03:21:45;;;;;;;27.13;25.42;;;;;;;;;;5025422;28;20038;-53
2023/12/29 03:24:11;;;;;;;26.90;25.50;;;;;;;;;;5026491;28;20044;-59
2023/12/29 03:26:36;;;;;;;26.85;25.40;;;;;;;;;;5026030;28;20032;-60
2023/12/29 03:29:01;;;;;;;26.80;25.38;;;;;;;;;;5029435;28;20136;-60
2023/12/29 03:31:27;;;;;;;24.20;22.92;;;;;;;;;;5027644;28;20033;-52
2023/12/29 03:33:52;;;;;;;25.23;23.90;;;;;;;;;;5026741;28;20415;-51
2023/12/29 03:36:18;;;;;;;27.55;25.85;;;;;;;;;;5030162;28;20033;-53
2023/12/29 03:38:43;;;;;;;26.13;24.75;;;;;;;;;;5025522;28;20671;-53
2023/12/29 03:41:08;;;;;;;26.13;24.73;;;;;;;;;;5038276;28;20032;-54
2023/12/29 03:43:34;;;;;;;26.50;25.08;;;;;;;;;;5030424;28;20029;-54
2023/12/29 03:45:59;;;;;;;25.88;24.48;;;;;;;;;;5033037;28;20099;-53
2023/12/29 03:48:24;;;;;;;25.27;23.90;;;;;;;;;;5027461;28;20500;-59
2023/12/29 03:50:50;;;;;;;24.00;22.70;;;;;;;;;;5023064;28;20124;-59
2023/12/29 03:53:15;;;;;;;25.55;24.15;;;;;;;;;;5027313;28;20095;-59
2023/12/29 03:55:41;;;;;;;26.05;24.65;;;;;;;;;;5022780;28;20041;-60
2023/12/29 03:58:07;;;;;;;25.38;24.00;;;;;;;;;;5032243;28;20037;-53
2023/12/29 04:00:32;;;;;;;24.80;23.45;;;;;;;;;;5025874;28;20033;-59
2023/12/29 04:02:57;;;;;;;25.98;24.35;;;;;;;;;;5026175;28;20053;-59
2023/12/29 04:05:23;;;;;;;25.52;24.13;;;;;;;;;;5026887;28;20044;-59
2023/12/29 04:07:48;;;;;;;27.20;25.75;;;;;;;;;;5027018;28;20045;-59
2023/12/29 04:10:14;;;;;;;26.02;24.63;;;;;;;;;;5028943;28;20598;-59
2023/12/29 04:12:39;;;;;;;25.67;24.30;;;;;;;;;;5024516;28;20022;-59
2023/12/29 04:15:05;;;;;;;24.58;23.27;;;;;;;;;;5028441;28;20033;-54
2023/12/29 04:17:30;;;;;;;24.65;23.35;;;;;;;;;;5026438;28;20577;-54
2023/12/29 04:19:56;;;;;;;24.85;23.55;;;;;;;;;;5025193;28;20033;-59
2023/12/29 04:22:21;;;;;;;27.00;25.60;;;;;;;;;;5024834;28;20332;-59
2023/12/29 04:24:47;;;;;;;27.27;25.77;;;;;;;;;;5026655;28;20076;-55
2023/12/29 04:27:14;;;;;;;26.58;25.17;;;;;;;;;;5028783;28;20471;-54
2023/12/29 04:29:39;;;;;;;25.90;24.50;;;;;;;;;;5026999;28;20036;-59
2023/12/29 04:32:05;;;;;;;25.92;24.52;;;;;;;;;;5026577;28;20064;-59
2023/12/29 04:34:30;;;;;;;27.13;25.73;;;;;;;;;;5027198;28;20040;-52
2023/12/29 04:36:55;;;;;;;25.80;24.42;;;;;;;;;;5030315;28;20156;-50
2023/12/29 04:39:21;;;;;;;25.40;24.08;;;;;;;;;;5027740;28;20037;-59
2023/12/29 04:41:46;;;;;;;26.27;24.88;;;;;;;;;;5024642;28;20021;-60
2023/12/29 04:44:11;;;;;;;28.55;27.05;;;;;;;;;;5031392;28;20025;-59
2023/12/29 04:46:37;;;;;;;26.67;25.27;;;;;;;;;;5027885;28;20044;-59
2023/12/29 04:49:02;;;;;;;28.85;27.35;;;;;;;;;;5025519;28;20730;-59
2023/12/29 04:51:27;;;;;;;30.23;28.65;;;;;;;;;;5022169;28;20781;-59
2023/12/29 04:53:53;;;;;;;29.67;27.98;;;;;;;;;;5029716;28;20491;-59
2023/12/29 04:56:18;;;;;;;30.40;28.73;;;;;;;;;;5025557;28;20051;-51
2023/12/29 04:58:43;;;;;;;27.40;25.92;;;;;;;;;;5029909;28;20030;-50
2023/12/29 05:01:08;;;;;;;28.17;26.58;;;;;;;;;;5027355;28;20069;-59
2023/12/29 05:03:34;;;;;;;29.15;27.65;;;;;;;;;;5028773;28;20069;-60
2023/12/29 05:05:59;;;;;;;27.80;26.30;;;;;;;;;;5028795;28;20125;-59
2023/12/29 05:08:24;;;;;;;28.35;26.85;;;;;;;;;;5025403;28;20068;-59
2023/12/29 05:10:50;;;;;;;28.27;26.77;;;;;;;;;;5027945;28;20045;-59
2023/12/29 05:13:15;;;;;;;27.67;26.08;;;;;;;;;;5033524;28;20037;-59
2023/12/29 05:15:41;;;;;;;27.15;25.67;;;;;;;;;;5027829;28;20040;-59
2023/12/29 05:18:06;;;;;;;24.17;22.88;;;;;;;;;;5031084;28;20032;-59
2023/12/29 05:20:32;;;;;;;25.40;24.00;;;;;;;;;;5029501;28;20129;-50
2023/12/29 05:22:57;;;;;;;26.85;25.42;;;;;;;;;;5032003;28;20821;-59
2023/12/29 05:25:24;;;;;;;24.85;23.55;;;;;;;;;;5029719;28;20536;-59
2023/12/29 05:27:49;;;;;;;27.70;26.25;;;;;;;;;;5036542;28;20045;-50
2023/12/29 05:30:15;;;;;;;25.90;24.50;;;;;;;;;;5033432;28;20037;-53
2023/12/29 05:32:41;;;;;;;24.35;23.00;;;;;;;;;;5032282;28;20034;-54
2023/12/29 05:35:06;;;;;;;24.73;23.42;;;;;;;;;;5029684;28;20128;-59
2023/12/29 05:37:31;;;;;;;25.98;24.60;;;;;;;;;;5027047;28;20116;-59
2023/12/29 05:39:57;;;;;;;26.83;25.42;;;;;;;;;;5035270;28;20025;-59
2023/12/29 05:42:22;;;;;;;23.30;22.05;;;;;;;;;;5028650;28;20333;-59
2023/12/29 05:44:47;;;;;;;25.30;23.92;;;;;;;;;;5033233;28;20033;-48
2023/12/29 05:47:12;;;;;;;23.50;22.27;;;;;;;;;;5028248;28;20063;-51
2023/12/29 05:49:39;;;;;;;25.95;24.38;;;;;;;;;;5028822;28;20029;-51
2023/12/29 05:52:07;;;;;;;22.70;21.50;;;;;;;;;;5031408;28;20380;-50
2023/12/29 05:54:33;;;;;;;25.27;23.95;;;;;;;;;;5035629;28;20429;-52
2023/12/29 05:56:58;;;;;;;25.80;24.40;;;;;;;;;;5031204;28;20124;-59
2023/12/29 05:59:23;;;;;;;24.10;22.80;;;;;;;;;;5030100;28;20148;-60
2023/12/29 06:01:49;;;;;;;23.75;22.45;;;;;;;;;;5029511;28;20033;-59
2023/12/29 06:04:14;;;;;;;26.63;25.23;;;;;;;;;;5036747;28;20047;-59
2023/12/29 06:06:41;;;;;;;26.50;25.10;;;;;;;;;;5031810;28;20496;-59
2023/12/29 06:09:07;;;;;;;25.23;23.85;;;;;;;;;;5031769;28;20788;-59
2023/12/29 06:11:32;;;;;;;26.27;24.88;;;;;;;;;;5031492;28;20119;-60
2023/12/29 06:13:59;;;;;;;27.85;26.38;;;;;;;;;;5030967;28;20523;-60
2023/12/29 06:16:26;;;;;;;25.17;23.88;;;;;;;;;;5031750;28;20451;-51
2023/12/29 06:18:52;;;;;;;26.08;24.67;;;;;;;;;;5030612;28;20513;-59
2023/12/29 06:21:17;;;;;;;27.38;25.98;;;;;;;;;;5031689;28;20022;-59
2023/12/29 06:23:43;;;;;;;27.75;26.27;;;;;;;;;;5031504;28;20378;-59
2023/12/29 06:26:18;;;;;;;28.30;26.80;;;;;;;;;;5030692;28;20796;-50
2023/12/29 06:28:45;;;;;;;27.98;26.48;;;;;;;;;;5025372;28;20237;-55
2023/12/29 06:31:11;;;;;;;27.70;26.25;;;;;;;;;;5032131;28;20551;-50
2023/12/29 06:33:36;;;;;;;26.83;25.42;;;;;;;;;;5031139;28;20119;-50
2023/12/29 06:36:02;;;;;;;28.30;26.80;;;;;;;;;;5027925;28;20048;-54
2023/12/29 06:38:27;;;;;;;30.42;28.83;;;;;;;;;;5027892;28;20025;-55
2023/12/29 06:40:52;;;;;;;28.20;26.70;;;;;;;;;;5028964;28;20143;-60
2023/12/29 06:43:18;;;;;;;28.65;27.15;;;;;;;;;;5032221;28;20359;-60
2023/12/29 06:45:43;;;;;;;29.17;27.65;;;;;;;;;;5030421;28;20359;-59
2023/12/29 06:48:08;;;;;;;27.50;26.00;;;;;;;;;;5033290;28;20130;-54
2023/12/29 06:50:34;;;;;;;29.85;28.25;;;;;;;;;;5030076;28;20038;-53
2023/12/29 06:52:59;;;;;;;30.08;28.48;;;;;;;;;;5030959;28;20590;-50
2023/12/29 06:55:25;;;;;;;29.73;28.17;;;;;;;;;;5030522;28;20033;-59
2023/12/29 06:57:51;;;;;;;32.92;30.85;;;;;;;;;;5033000;28;20411;-59
2023/12/29 07:00:16;;;;;;;30.15;28.58;;;;;;;;;;5032737;28;20037;-50
2023/12/29 07:02:42;;;;;;;30.70;29.05;;;;;;;;;;5035078;28;20796;-51
2023/12/29 07:05:07;;;;;;;30.17;28.60;;;;;;;;;;5028862;28;20047;-50
2023/12/29 07:07:34;;;;;;;30.60;28.98;;;;;;;;;;5027068;28;20034;-54
2023/12/29 07:10:00;;;;;;;29.65;28.05;;;;;;;;;;5027202;28;20033;-56
2023/12/29 07:12:25;;;;;;;30.63;29.02;;;;;;;;;;5032413;28;20029;-50
2023/12/29 07:14:50;;;;;;;30.23;28.63;;;;;;;;;;5031917;28;20121;-60
2023/12/29 07:17:16;;;;;;;28.38;26.88;;;;;;;;;;5029125;28;20495;-59
2023/12/29 07:19:41;;;;;;;28.83;27.23;;;;;;;;;;5031322;28;20029;-59
2023/12/29 07:22:07;;;;;;;30.83;29.23;;;;;;;;;;5033330;28;20056;-59
2023/12/29 07:24:34;;;;;;;29.45;27.95;;;;;;;;;;5036056;28;20045;-59
2023/12/29 07:27:00;;;;;;;29.08;27.58;;;;;;;;;;5033432;28;20037;-63
2023/12/29 07:29:25;;;;;;;29.88;28.27;;;;;;;;;;5032233;28;20044;-68
2023/12/29 07:31:51;;;;;;;30.90;29.20;;;;;;;;;;5032025;28;20091;-68
2023/12/29 07:34:16;;;;;;;29.48;27.98;;;;;;;;;;5031175;28;20041;-57
2023/12/29 07:36:41;;;;;;;28.90;27.40;;;;;;;;;;5029002;28;20068;-58
2023/12/29 07:39:07;;;;;;;29.85;28.27;;;;;;;;;;5037706;28;20033;-68
2023/12/29 07:41:32;;;;;;;30.83;29.23;;;;;;;;;;5037609;28;20171;-67
2023/12/29 07:43:58;;;;;;;29.10;27.60;;;;;;;;;;5032586;28;20072;-68
2023/12/29 07:46:25;;;;;;;31.27;29.67;;;;;;;;;;5032733;28;20028;-57
2023/12/29 07:48:51;;;;;;;30.88;29.27;;;;;;;;;;5029915;28;20037;-59
2023/12/29 07:51:16;;;;;;;29.23;27.67;;;;;;;;;;5028868;28;20363;-57
2023/12/29 07:53:41;;;;;;;30.13;28.48;;;;;;;;;;5027684;28;20041;-58
2023/12/29 07:56:07;;;;;;;27.92;26.45;;;;;;;;;;5029558;28;20044;-58
2023/12/29 07:58:32;;;;;;;29.85;28.25;;;;;;;;;;5031980;28;20413;-54
2023/12/29 08:00:57;;;;;;;29.38;27.85;;;;;;;;;;5030102;28;20880;-58
2023/12/29 08:03:23;;;;;;;27.77;26.33;;;;;;;;;;5029772;28;20030;-58
2023/12/29 08:05:48;;;;;;;29.73;28.17;;;;;;;;;;5029922;28;20021;-57
2023/12/29 08:08:14;;;;;;;29.02;27.52;;;;;;;;;;5030801;28;20760;-58
2023/12/29 08:10:39;;;;;;;29.85;28.30;;;;;;;;;;5029422;28;20475;-57
2023/12/29 08:13:07;;;;;;;27.88;26.38;;;;;;;;;;5031093;28;20235;-58
2023/12/29 08:15:32;;;;;;;27.98;26.48;;;;;;;;;;5032819;28;20041;-58
2023/12/29 08:17:58;;;;;;;29.27;27.75;;;;;;;;;;5028748;28;20045;-56
2023/12/29 08:20:24;;;;;;;27.33;25.90;;;;;;;;;;5030301;28;20124;-57
2023/12/29 08:22:49;;;;;;;27.70;26.20;;;;;;;;;;5029885;28;20048;-58
2023/12/29 08:25:15;;;;;;;29.88;28.33;;;;;;;;;;5032632;28;20037;-58
2023/12/29 08:27:41;;;;;;;28.55;27.05;;;;;;;;;;5030330;28;20033;-59
2023/12/29 08:30:07;;;;;;;27.38;25.88;;;;;;;;;;5029249;28;20120;-59
2023/12/29 08:32:33;;;;;;;26.70;25.13;;;;;;;;;;5032565;28;20478;-58
2023/12/29 08:34:58;;;;;;;26.90;25.50;;;;;;;;;;5032123;28;20026;-58
2023/12/29 08:37:24;;;;;;;28.50;27.00;;;;;;;;;;5026559;28;20022;-59
2023/12/29 08:39:49;;;;;;;27.00;25.55;;;;;;;;;;5028727;28;20034;-58
2023/12/29 08:42:15;;;;;;;25.88;24.50;;;;;;;;;;5029650;28;20025;-58
2023/12/29 08:44:41;;;;;;;25.88;24.48;;;;;;;;;;5031553;28;20034;-59
2023/12/29 08:47:09;;;;;;;26.20;24.77;;;;;;;;;;5033064;28;20112;-59
2023/12/29 08:49:38;;;;;;;25.45;24.02;;;;;;;;;;5032249;28;20072;-59
2023/12/29 08:52:04;;;;;;;25.08;23.77;;;;;;;;;;5033450;28;20111;-58
2023/12/29 08:54:29;;;;;;;25.85;24.45;;;;;;;;;;5033091;28;20447;-59
2023/12/29 08:56:55;;;;;;;27.30;25.83;;;;;;;;;;5031929;28;20036;-59
2023/12/29 08:59:20;;;;;;;26.85;25.45;;;;;;;;;;5032025;28;20103;-58
2023/12/29 09:01:46;;;;;;;25.92;24.58;;;;;;;;;;5033462;28;20109;-58
2023/12/29 09:04:12;;;;;;;26.05;24.65;;;;;;;;;;5034074;28;20584;-59
2023/12/29 09:06:37;;;;;;;27.70;26.20;;;;;;;;;;5032099;28;20473;-68
2023/12/29 09:09:02;;;;;;;25.02;23.63;;;;;;;;;;5031898;28;20387;-68
2023/12/29 09:11:28;;;;;;;23.58;22.30;;;;;;;;;;5035456;28;20366;-58
2023/12/29 09:13:54;;;;;;;24.25;22.83;;;;;;;;;;5032070;28;20063;-58
2023/12/29 09:16:19;;;;;;;25.00;23.70;;;;;;;;;;5034960;28;20451;-68
2023/12/29 09:18:45;;;;;;;24.52;23.23;;;;;;;;;;5036157;28;20104;-69
2023/12/29 09:21:10;;;;;;;26.50;25.10;;;;;;;;;;5032156;28;20454;-69
2023/12/29 09:23:38;;;;;;;24.85;23.55;;;;;;;;;;5034036;28;20033;-58
2023/12/29 09:26:04;;;;;;;25.17;23.85;;;;;;;;;;5028948;28;20049;-59
2023/12/29 09:28:32;;;;;;;24.95;23.45;;;;;;;;;;5032824;28;20037;-58
2023/12/29 09:30:58;;;;;;;24.35;23.05;;;;;;;;;;5031564;28;20032;-68
2023/12/29 09:33:24;;;;;;;24.10;22.80;;;;;;;;;;5038553;28;20597;-68
2023/12/29 09:35:50;;;;;;;23.63;22.33;;;;;;;;;;5036662;28;20048;-67
2023/12/29 09:38:16;;;;;;;23.10;21.90;;;;;;;;;;5032059;28;20501;-59
2023/12/29 09:40:41;;;;;;;24.65;23.35;;;;;;;;;;5032951;28;20064;-58
2023/12/29 09:43:08;;;;;;;22.10;20.90;;;;;;;;;;5035959;28;20033;-58
2023/12/29 09:45:37;;;;;;;22.17;20.98;;;;;;;;;;5034770;28;20435;-58
2023/12/29 09:48:11;;;;;;;23.65;22.35;;;;;;;;;;5025799;28;20051;-58
2023/12/29 09:50:37;;;;;;;24.20;22.90;;;;;;;;;;5032883;28;20411;-58
2023/12/29 09:53:04;;;;;;;22.95;21.75;;;;;;;;;;5027601;28;20322;-68
2023/12/29 09:55:30;;;;;;;24.30;23.00;;;;;;;;;;5031407;28;20045;-67
2023/12/29 09:57:59;;;;;;;24.25;21.67;;;;;;;;;;5029939;28;20037;-68
2023/12/29 10:00:25;;;;;;;21.80;20.60;;;;;;;;;;5032145;28;20406;-68
2023/12/29 10:02:54;;;;;;;21.63;20.42;;;;;;;;;;5025884;28;20039;-67
2023/12/29 10:05:19;;;;;;;23.55;22.25;;;;;;;;;;5028322;28;20041;-68
2023/12/29 10:07:47;;;;;;;23.20;22.00;;;;;;;;;;5030960;28;20199;-68
2023/12/29 10:10:18;;;;;;;22.60;21.40;;;;;;;;;;5031679;28;20067;-69
2023/12/29 10:12:47;;;;;;;23.40;22.10;;;;;;;;;;5033403;28;20045;-68
2023/12/29 10:15:19;;;;;;;23.30;22.10;;;;;;;;;;5028515;28;20554;-68
2023/12/29 10:18:08;;;;;;;22.50;21.30;;;;;;;;;;5033517;28;20037;-69
2023/12/29 10:20:58;;;;;;;22.25;21.05;;;;;;;;;;5029158;28;20043;-68
2023/12/29 10:23:27;;;;;;;24.08;22.73;;;;;;;;;;5028457;28;20045;-68
2023/12/29 10:25:53;;;;;;;22.98;21.77;;;;;;;;;;5030463;28;20037;-68
2023/12/29 10:28:18;;;;;;;23.23;21.95;;;;;;;;;;5033905;28;20057;-58
2023/12/29 10:30:44;;;;;;;23.10;21.90;;;;;;;;;;5031353;28;20041;-59
2023/12/29 10:33:09;;;;;;;22.63;21.42;;;;;;;;;;5032676;28;20044;-68
2023/12/29 10:35:37;;;;;;;23.00;21.80;;;;;;;;;;5031548;28;20328;-68
2023/12/29 10:38:12;;;;;;;22.88;21.67;;;;;;;;;;5029579;28;20037;-68
2023/12/29 10:40:38;;;;;;;23.20;21.90;;;;;;;;;;5034078;28;20280;-68
2023/12/29 10:43:06;;;;;;;22.95;21.65;;;;;;;;;;5033455;28;20159;-68
2023/12/29 10:45:32;;;;;;;22.67;21.48;;;;;;;;;;5032036;28;20060;-68
2023/12/29 10:48:00;;;;;;;22.73;21.52;;;;;;;;;;5030408;28;20049;-58
2023/12/29 10:50:27;;;;;;;22.80;21.60;;;;;;;;;;5028599;28;20052;-68
2023/12/29 10:53:10;;;;;;;23.98;22.67;;;;;;;;;;5029509;28;20708;-58
2023/12/29 10:55:35;;;;;;;23.08;21.88;;;;;;;;;;5029446;28;20041;-58
2023/12/29 10:58:01;;;;;;;22.90;21.63;;;;;;;;;;5028932;28;20025;-58
2023/12/29 11:00:30;;;;;;;22.60;21.40;;;;;;;;;;5031376;28;20277;-58
2023/12/29 11:02:55;;;;;;;22.90;21.70;;;;;;;;;;5029468;28;20090;-58
2023/12/29 11:05:25;;;;;;;22.90;21.70;;;;;;;;;;5029684;28;20037;-57
2023/12/29 11:07:53;;;;;;;23.88;22.58;;;;;;;;;;5027019;28;20041;-59
2023/12/29 11:10:20;;;;;;;23.10;21.90;;;;;;;;;;5032801;28;20029;-58
2023/12/29 11:12:46;;;;;;;22.80;21.60;;;;;;;;;;5029269;28;20643;-58
2023/12/29 11:15:13;;;;;;;25.60;24.27;;;;;;;;;;5031984;28;20072;-58
2023/12/29 11:17:47;;;;;;;24.80;23.50;;;;;;;;;;5028150;28;20527;-59
2023/12/29 11:20:14;;;;;;;22.88;21.67;;;;;;;;;;5031141;28;20041;-58
2023/12/29 11:22:40;;;;;;;23.42;22.20;;;;;;;;;;5027894;28;20065;-59
2023/12/29 11:25:07;;;;;;;22.50;21.30;;;;;;;;;;5031985;28;20049;-69
2023/12/29 11:27:33;;;;;;;23.73;22.45;;;;;;;;;;5027018;28;20116;-58
2023/12/29 11:30:00;;;;;;;23.48;22.17;;;;;;;;;;5030553;28;20145;-58
2023/12/29 11:32:29;;;;;;;23.30;22.00;;;;;;;;;;5027162;28;20410;-69
2023/12/29 11:35:03;;;;;;;22.10;20.90;;;;;;;;;;5031382;28;20039;-69
2023/12/29 11:37:35;;;;;;;21.85;20.65;;;;;;;;;;5027165;28;20028;-68
2023/12/29 11:40:22;;;;;;;22.33;21.13;;;;;;;;;;5031159;28;20029;-69
2023/12/29 11:42:51;;;;;;;22.15;20.95;;;;;;;;;;5028885;28;20112;-69
2023/12/29 11:45:37;;;;;;;22.05;20.85;;;;;;;;;;5028160;28;20507;-58
2023/12/29 11:48:03;;;;;;;22.98;21.77;;;;;;;;;;5030217;28;20051;-59
2023/12/29 11:50:30;;;;;;;22.40;21.20;;;;;;;;;;5027684;28;20044;-58
2023/12/29 11:52:56;;;;;;;25.10;23.70;;;;;;;;;;5028616;28;20029;-69
2023/12/29 11:55:27;;;;;;;22.85;21.65;;;;;;;;;;5028118;28;20034;-58
2023/12/29 11:57:53;;;;;;;22.52;21.33;;;;;;;;;;5029555;28;20110;-68
2023/12/29 12:00:18;;;;;;;24.98;23.67;;;;;;;;;;5028428;28;20466;-59
2023/12/29 12:02:44;;;;;;;22.48;21.27;;;;;;;;;;5032412;28;20021;-59
2023/12/29 12:05:10;;;;;;;22.17;20.98;;;;;;;;;;5029279;28;20037;-69
2023/12/29 12:07:35;;;;;;;23.98;22.67;;;;;;;;;;5032791;28;20070;-68
2023/12/29 12:10:19;;;;;;;21.45;20.25;;;;;;;;;;5031074;28;20048;-58
2023/12/29 12:12:44;;;;;;;24.23;22.92;;;;;;;;;;5026148;28;20041;-59
2023/12/29 12:15:33;;;;;;;23.42;21.80;;;;;;;;;;5028481;28;20029;-59
2023/12/29 12:18:04;;;;;;;22.08;20.88;;;;;;;;;;5030181;28;20371;-59
2023/12/29 12:20:29;;;;;;;22.83;21.63;;;;;;;;;;5030386;28;20506;-59
2023/12/29 12:23:01;;;;;;;22.45;21.25;;;;;;;;;;5031693;28;20040;-59
2023/12/29 12:25:30;;;;;;;22.65;21.33;;;;;;;;;;5034075;28;20053;-69
2023/12/29 12:27:56;;;;;;;23.13;21.92;;;;;;;;;;5032241;28;20072;-69
2023/12/29 12:30:22;;;;;;;23.50;22.25;;;;;;;;;;5029405;28;20051;-59
2023/12/29 12:32:58;;;;;;;24.92;23.63;;;;;;;;;;5031819;28;20041;-69
2023/12/29 12:35:26;;;;;;;22.85;21.65;;;;;;;;;;5030197;28;20013;-59
2023/12/29 12:38:06;;;;;;;23.77;22.48;;;;;;;;;;5025519;28;20037;-59
2023/12/29 12:40:32;;;;;;;23.48;22.17;;;;;;;;;;5028160;28;20041;-59
2023/12/29 12:42:57;;;;;;;22.85;21.65;;;;;;;;;;5025172;28;20089;-59
2023/12/29 12:45:27;;;;;;;25.35;24.00;;;;;;;;;;5029621;28;20489;-68
2023/12/29 12:48:14;;;;;;;24.80;23.40;;;;;;;;;;5030312;28;20051;-59
2023/12/29 12:50:45;;;;;;;24.58;23.27;;;;;;;;;;5026839;28;20152;-59
2023/12/29 12:53:11;;;;;;;;;;;;;;;;;;5027471;28;20116;-68
2023/12/29 12:55:37;;;;;;;26.00;24.52;;;;;;;;;;5030374;28;19917;-59
2023/12/29 12:58:03;;;;;;;23.88;22.58;;;;;;;;;;5024413;28;20041;-59
2023/12/29 13:00:29;;;;;;;24.42;23.13;;;;;;;;;;5031197;28;20026;-59
2023/12/29 13:02:55;;;;;;;24.98;23.58;;;;;;;;;;5031818;28;20905;-59
2023/12/29 13:05:23;;;;;;;25.40;24.05;;;;;;;;;;5035267;28;20037;-59
2023/12/29 13:07:49;;;;;;;26.77;25.27;;;;;;;;;;5029633;28;20040;-68
2023/12/29 13:10:14;;;;;;;24.88;23.58;;;;;;;;;;5028742;28;20048;-69
2023/12/29 13:12:39;;;;;;;25.13;23.83;;;;;;;;;;5028430;28;20507;-68
2023/12/29 13:15:08;;;;;;;25.35;23.95;;;;;;;;;;5032569;28;20025;-59
2023/12/29 13:17:34;;;;;;;23.95;22.65;;;;;;;;;;5038170;28;20417;-59
2023/12/29 13:20:00;;;;;;;23.70;22.40;;;;;;;;;;5035067;28;20056;-69
2023/12/29 13:22:28;;;;;;;24.95;23.65;;;;;;;;;;5023656;28;20064;-69
2023/12/29 13:24:54;;;;;;;24.33;23.02;;;;;;;;;;5027222;28;20044;-69
2023/12/29 13:27:21;;;;;;;24.40;23.00;;;;;;;;;;5027721;28;20074;-69
2023/12/29 13:29:47;;;;;;;25.15;23.75;;;;;;;;;;5028352;28;20607;-69
2023/12/29 13:32:16;;;;;;;25.83;23.95;;;;;;;;;;5033823;28;20046;-68
2023/12/29 13:35:19;;;;;;;26.50;25.10;;;;;;;;;;5031256;28;20037;-69
2023/12/29 13:38:01;;;;;;;22.63;21.42;;;;;;;;;;5028423;28;20484;-69
2023/12/29 13:40:37;;;;;;;24.08;22.77;;;;;;;;;;5031608;28;20458;-69
2023/12/29 13:43:06;;;;;;;23.38;22.17;;;;;;;;;;5034327;28;20041;-69
2023/12/29 13:45:32;;;;;;;23.95;22.65;;;;;;;;;;5023036;28;20026;-71
2023/12/29 13:47:59;;;;;;;22.30;21.10;;;;;;;;;;5028571;28;20730;-68
2023/12/29 13:50:24;;;;;;;23.92;22.63;;;;;;;;;;5030406;28;20447;-69
2023/12/29 13:52:50;;;;;;;23.27;22.05;;;;;;;;;;5030773;28;20740;-68
2023/12/29 13:55:23;;;;;;;23.00;21.80;;;;;;;;;;5032527;28;20124;-69
2023/12/29 13:57:48;;;;;;;24.13;22.83;;;;;;;;;;5031393;28;20041;-68
2023/12/29 14:00:25;;;;;;;24.05;22.75;;;;;;;;;;5033801;28;20565;-68
2023/12/29 14:02:56;;;;;;;23.25;22.05;;;;;;;;;;5014872;28;20127;-69
2023/12/29 14:05:47;;;;;;;24.63;23.33;;;;;;;;;;5028934;28;20029;-69
2023/12/29 14:08:25;;;;;;;22.70;21.50;;;;;;;;;;5029195;28;20394;-69
2023/12/29 14:10:51;;;;;;;23.80;22.52;;;;;;;;;;5033862;28;20037;-68
2023/12/29 14:13:17;;;;;;;23.45;22.20;;;;;;;;;;5031555;28;20048;-69
2023/12/29 14:15:47;;;;;;;26.52;25.13;;;;;;;;;;5031482;28;20403;-69
2023/12/29 14:18:12;;;;;;;26.30;24.90;;;;;;;;;;5029562;28;20034;-69